createdAt,value
2023-04-18T00:01:23.455Z,100.00
2023-04-18T00:03:51.281Z,100.00
2023-04-18T00:06:22.069Z,100.00
2023-04-18T00:08:48.455Z,100.00
2023-04-18T00:11:14.938Z,100.00
2023-04-18T00:13:41.408Z,100.00
2023-04-18T00:16:08.591Z,100.00
2023-04-18T00:18:36.921Z,100.00
2023-04-18T00:21:04.344Z,100.00
2023-04-18T00:23:31.097Z,100.00
2023-04-18T00:25:57.535Z,100.00
2023-04-18T00:28:23.978Z,100.00
2023-04-18T00:30:50.434Z,100.00
2023-04-18T00:33:16.957Z,100.00
2023-04-18T00:35:43.427Z,100.00
2023-04-18T00:38:09.821Z,100.00
2023-04-18T00:40:36.717Z,100.00
2023-04-18T00:43:03.330Z,100.00
2023-04-18T00:45:29.840Z,100.00
2023-04-18T00:47:56.468Z,100.00
2023-04-18T00:50:24.249Z,100.00
2023-04-18T00:52:51.178Z,100.00
2023-04-18T00:55:18.371Z,100.00
2023-04-18T00:57:44.833Z,100.00
2023-04-18T01:00:12.258Z,100.00
2023-04-18T01:02:41.108Z,100.00
2023-04-18T01:05:08.677Z,100.00
2023-04-18T01:07:37.342Z,100.00
2023-04-18T01:10:04.331Z,100.00
2023-04-18T01:12:30.817Z,100.00
2023-04-18T01:14:57.295Z,100.00
2023-04-18T01:17:23.843Z,100.00
2023-04-18T01:19:50.987Z,100.00
2023-04-18T01:22:19.322Z,100.00
2023-04-18T01:24:45.751Z,100.00
2023-04-18T01:27:15.712Z,100.00
2023-04-18T01:29:42.151Z,100.00
2023-04-18T01:32:08.560Z,100.00
2023-04-18T01:34:35.027Z,100.00
2023-04-18T01:37:01.505Z,100.00
2023-04-18T01:39:28.649Z,100.00
2023-04-18T01:41:55.123Z,100.00
2023-04-18T01:44:21.505Z,100.00
2023-04-18T01:46:47.913Z,100.00
2023-04-18T01:49:14.494Z,100.00
2023-04-18T01:51:42.090Z,100.00
2023-04-18T01:54:08.509Z,100.00
2023-04-18T01:56:35.052Z,100.00
2023-04-18T01:59:01.497Z,100.00
2023-04-18T02:01:28.067Z,100.00
2023-04-18T02:03:54.681Z,100.00
2023-04-18T02:06:21.497Z,100.00
2023-04-18T02:08:47.895Z,100.00
2023-04-18T02:11:14.311Z,100.00
2023-04-18T02:13:40.780Z,100.00
2023-04-18T02:16:12.670Z,100.00
2023-04-18T02:18:39.325Z,100.00
2023-04-18T02:21:05.822Z,100.00
2023-04-18T02:23:32.218Z,100.00
2023-04-18T02:25:58.594Z,100.00
2023-04-18T02:28:25.019Z,100.00
2023-04-18T02:30:51.438Z,100.00
2023-04-18T02:33:17.817Z,100.00
2023-04-18T02:35:44.311Z,100.00
2023-04-18T02:38:10.723Z,100.00
2023-04-18T02:40:37.333Z,100.00
2023-04-18T02:43:03.795Z,100.00
2023-04-18T02:45:30.264Z,100.00
2023-04-18T02:47:56.898Z,100.00
2023-04-18T02:50:24.492Z,100.00
2023-04-18T02:52:51.109Z,100.00
2023-04-18T02:55:17.606Z,100.00
2023-04-18T02:57:44.025Z,100.00
2023-04-18T03:00:11.114Z,100.00
2023-04-18T03:02:37.574Z,100.00
2023-04-18T03:05:04.351Z,100.00
2023-04-18T03:07:31.173Z,100.00
2023-04-18T03:09:57.898Z,100.00
2023-04-18T03:12:24.399Z,100.00
2023-04-18T03:14:50.899Z,100.00
2023-04-18T03:17:18.059Z,100.00
2023-04-18T03:19:45.382Z,100.00
2023-04-18T03:22:13.342Z,100.00
2023-04-18T03:24:39.821Z,100.00
2023-04-18T03:27:06.314Z,100.00
2023-04-18T03:29:33.313Z,100.00
2023-04-18T03:31:59.699Z,100.00
2023-04-18T03:34:26.091Z,100.00
2023-04-18T03:36:52.482Z,100.00
2023-04-18T03:39:18.889Z,100.00
2023-04-18T03:41:45.298Z,100.00
2023-04-18T03:44:11.966Z,100.00
2023-04-18T03:46:38.819Z,100.00
2023-04-18T03:49:05.308Z,100.00
2023-04-18T03:51:34.017Z,100.00
2023-04-18T03:54:00.419Z,100.00
2023-04-18T03:56:26.972Z,100.00
2023-04-18T03:58:53.396Z,100.00
2023-04-18T04:01:19.783Z,100.00
2023-04-18T04:03:46.408Z,100.00
2023-04-18T04:06:13.076Z,100.00
2023-04-18T04:08:39.452Z,100.00
2023-04-18T04:11:05.924Z,100.00
2023-04-18T04:13:32.345Z,100.00
2023-04-18T04:15:58.961Z,100.00
2023-04-18T04:18:30.932Z,100.00
2023-04-18T04:20:59.149Z,100.00
2023-04-18T04:23:26.873Z,100.00
2023-04-18T04:25:54.642Z,100.00
2023-04-18T04:28:26.203Z,100.00
2023-04-18T04:30:53.236Z,100.00
2023-04-18T04:33:20.998Z,100.00
2023-04-18T04:35:47.935Z,100.00
2023-04-18T04:38:19.951Z,100.00
2023-04-18T04:40:46.408Z,100.00
2023-04-18T04:43:15.474Z,100.00
2023-04-18T04:45:43.539Z,100.00
2023-04-18T04:48:11.149Z,100.00
2023-04-18T04:50:40.336Z,100.00
2023-04-18T04:53:07.593Z,100.00
2023-04-18T04:55:35.551Z,100.00
2023-04-18T04:58:02.439Z,100.00
2023-04-18T05:00:29.416Z,100.00
2023-04-18T05:03:00.108Z,100.00
2023-04-18T05:05:27.481Z,100.00
2023-04-18T05:07:54.717Z,100.00
2023-04-18T05:10:21.786Z,100.00
2023-04-18T05:12:48.279Z,100.00
2023-04-18T05:15:16.418Z,100.00
2023-04-18T05:17:43.020Z,100.00
2023-04-18T05:20:10.534Z,100.00
2023-04-18T05:22:37.238Z,100.00
2023-04-18T05:25:04.096Z,100.00
2023-04-18T05:27:30.584Z,100.00
2023-04-18T05:29:56.999Z,100.00
2023-04-18T05:32:23.612Z,100.00
2023-04-18T05:34:50.094Z,100.00
2023-04-18T05:37:16.893Z,100.00
2023-04-18T05:39:43.381Z,100.00
2023-04-18T05:42:09.794Z,100.00
2023-04-18T05:44:37.667Z,100.00
2023-04-18T05:47:06.815Z,100.00
2023-04-18T05:49:33.587Z,100.00
2023-04-18T05:52:00.197Z,100.00
2023-04-18T05:54:27.435Z,100.00
2023-04-18T05:56:54.684Z,100.00
2023-04-18T05:59:21.446Z,100.00
2023-04-18T06:01:49.266Z,100.00
2023-04-18T06:04:16.646Z,100.00
2023-04-18T06:06:43.540Z,100.00
2023-04-18T06:09:10.082Z,100.00
2023-04-18T06:11:36.696Z,100.00
2023-04-18T06:14:03.629Z,100.00
2023-04-18T06:16:30.130Z,100.00
2023-04-18T06:18:59.670Z,100.00
2023-04-18T06:21:27.852Z,100.00
2023-04-18T06:23:54.647Z,100.00
2023-04-18T06:26:21.176Z,100.00
2023-04-18T06:28:47.681Z,100.00
2023-04-18T06:31:14.204Z,100.00
2023-04-18T06:33:40.871Z,100.00
2023-04-18T06:36:07.755Z,100.00
2023-04-18T06:38:34.278Z,100.00
2023-04-18T06:41:00.840Z,100.00
2023-04-18T06:43:27.362Z,100.00
2023-04-18T06:45:54.718Z,100.00
2023-04-18T06:48:21.759Z,100.00
2023-04-18T06:50:48.196Z,100.00
2023-04-18T06:53:14.926Z,100.00
2023-04-18T06:55:41.428Z,100.00
2023-04-18T06:58:08.480Z,100.00
2023-04-18T07:00:34.947Z,100.00
2023-04-18T07:03:04.687Z,100.00
2023-04-18T07:05:31.223Z,100.00
2023-04-18T07:07:57.666Z,100.00
2023-04-18T07:10:24.302Z,100.00
2023-04-18T07:12:50.804Z,100.00
2023-04-18T07:15:17.242Z,100.00
2023-04-18T07:17:43.707Z,100.00
2023-04-18T07:20:12.306Z,100.00
2023-04-18T07:22:41.133Z,100.00
2023-04-18T07:25:07.996Z,100.00
2023-04-18T07:27:36.195Z,100.00
2023-04-18T07:30:06.197Z,100.00
2023-04-18T07:32:32.638Z,100.00
2023-04-18T07:34:59.135Z,100.00
2023-04-18T07:37:26.076Z,100.00
2023-04-18T07:39:52.700Z,100.00
2023-04-18T07:42:19.107Z,100.00
2023-04-18T07:44:45.586Z,100.00
2023-04-18T07:47:12.025Z,100.00
2023-04-18T07:49:38.555Z,100.00
2023-04-18T07:52:05.062Z,100.00
2023-04-18T07:54:31.523Z,100.00
2023-04-18T07:56:59.387Z,100.00
2023-04-18T07:59:25.808Z,100.00
2023-04-18T08:01:52.208Z,100.00
2023-04-18T08:04:18.890Z,100.00
2023-04-18T08:06:45.503Z,100.00
2023-04-18T08:09:12.500Z,100.00
2023-04-18T08:11:42.571Z,100.00
2023-04-18T08:14:09.010Z,100.00
2023-04-18T08:16:35.988Z,100.00
2023-04-18T08:19:02.413Z,100.00
2023-04-18T08:21:28.874Z,100.00
2023-04-18T08:23:55.623Z,100.00
2023-04-18T08:26:22.148Z,100.00
2023-04-18T08:28:48.649Z,100.00
2023-04-18T08:31:15.410Z,100.00
2023-04-18T08:33:42.130Z,100.00
2023-04-18T08:36:08.934Z,100.00
2023-04-18T08:38:35.448Z,100.00
2023-04-18T08:41:01.967Z,100.00
2023-04-18T08:43:30.155Z,100.00
2023-04-18T08:46:00.854Z,100.00
2023-04-18T08:48:30.575Z,99.81
2023-04-18T08:50:58.696Z,99.20
2023-04-18T08:53:26.693Z,97.44
2023-04-18T08:55:58.036Z,97.65
2023-04-18T08:58:27.594Z,94.20
2023-04-18T09:00:54.856Z,93.12
2023-04-18T09:03:39.948Z,85.79
2023-04-18T09:06:09.897Z,86.34
2023-04-18T09:08:36.378Z,87.38
2023-04-18T09:11:24.027Z,80.55
2023-04-18T09:13:50.582Z,84.27
2023-04-18T09:16:20.683Z,83.70
2023-04-18T09:19:13.720Z,78.43
2023-04-18T09:21:42.649Z,82.73
2023-04-18T09:24:23.815Z,81.05
2023-04-18T09:26:56.847Z,80.03
2023-04-18T09:29:43.396Z,79.42
2023-04-18T09:32:09.909Z,74.64
2023-04-18T09:34:42.408Z,78.05
2023-04-18T09:37:10.974Z,79.51
2023-04-18T09:39:39.421Z,77.32
2023-04-18T09:42:06.692Z,76.07
2023-04-18T09:44:33.241Z,67.60
2023-04-18T09:47:00.674Z,68.28
2023-04-18T09:49:27.640Z,71.66
2023-04-18T09:51:55.729Z,67.38
2023-04-18T09:54:25.896Z,69.04
2023-04-18T09:56:54.192Z,70.13
2023-04-18T09:59:35.040Z,68.88
2023-04-18T10:02:03.626Z,66.37
2023-04-18T10:04:30.835Z,66.83
2023-04-18T10:06:58.637Z,65.65
2023-04-18T10:09:26.415Z,67.20
2023-04-18T10:11:54.431Z,69.25
2023-04-18T10:14:22.688Z,62.68
2023-04-18T10:16:50.581Z,62.96
2023-04-18T10:19:28.404Z,63.13
2023-04-18T10:21:59.546Z,65.13
2023-04-18T10:24:44.920Z,58.43
2023-04-18T10:27:11.576Z,62.09
2023-04-18T10:29:54.029Z,63.51
2023-04-18T10:32:23.554Z,61.58
2023-04-18T10:34:53.322Z,60.28
2023-04-18T10:37:20.018Z,56.31
2023-04-18T10:40:02.568Z,55.54
2023-04-18T10:42:47.045Z,50.42
2023-04-18T10:45:22.064Z,54.09
2023-04-18T10:47:48.920Z,54.91
2023-04-18T10:50:16.109Z,53.67
2023-04-18T10:52:43.404Z,55.54
2023-04-18T10:55:17.729Z,53.44
2023-04-18T10:57:48.671Z,52.38
2023-04-18T11:00:16.754Z,44.88
2023-04-18T11:02:52.116Z,46.28
2023-04-18T11:05:21.727Z,50.82
2023-04-18T11:07:49.067Z,50.86
2023-04-18T11:10:21.198Z,49.17
2023-04-18T11:12:47.854Z,46.43
2023-04-18T11:15:21.169Z,48.00
2023-04-18T11:18:05.989Z,44.35
2023-04-18T11:20:53.552Z,46.23
2023-04-18T11:23:24.742Z,48.42
2023-04-18T11:25:56.412Z,48.68
2023-04-18T11:28:24.943Z,45.88
2023-04-18T11:30:51.427Z,44.94
2023-04-18T11:33:17.986Z,44.68
2023-04-18T11:35:46.454Z,45.60
2023-04-18T11:38:15.151Z,45.49
2023-04-18T11:40:49.410Z,46.02
2023-04-18T11:43:21.687Z,45.07
2023-04-18T11:46:06.119Z,40.19
2023-04-18T11:48:40.699Z,42.71
2023-04-18T11:51:08.293Z,44.20
2023-04-18T11:53:38.860Z,41.50
2023-04-18T11:56:05.869Z,42.59
2023-04-18T11:58:36.587Z,41.21
2023-04-18T12:01:25.227Z,41.70
2023-04-18T12:04:02.139Z,44.09
2023-04-18T12:06:54.078Z,40.45
2023-04-18T12:09:22.954Z,42.72
2023-04-18T12:12:03.148Z,42.16
2023-04-18T12:14:30.168Z,41.05
2023-04-18T12:16:56.640Z,42.12
2023-04-18T12:19:28.007Z,40.36
2023-04-18T12:22:03.084Z,40.68
2023-04-18T12:24:29.541Z,41.06
2023-04-18T12:26:57.978Z,40.85
2023-04-18T12:29:25.701Z,40.84
2023-04-18T12:31:52.233Z,39.56
2023-04-18T12:34:18.705Z,40.83
2023-04-18T12:36:45.280Z,42.03
2023-04-18T12:39:11.743Z,41.47
2023-04-18T12:41:38.335Z,40.14
2023-04-18T12:44:05.820Z,41.48
2023-04-18T12:46:32.525Z,40.92
2023-04-18T12:48:58.981Z,40.47
2023-04-18T12:51:26.546Z,41.57
2023-04-18T12:53:53.018Z,41.50
2023-04-18T12:56:19.519Z,41.73
2023-04-18T12:58:45.952Z,42.16
2023-04-18T13:01:14.137Z,38.84
2023-04-18T13:03:41.204Z,39.71
2023-04-18T13:06:08.731Z,39.17
2023-04-18T13:08:35.483Z,38.49
2023-04-18T13:11:01.911Z,40.85
2023-04-18T13:13:28.322Z,39.14
2023-04-18T13:15:54.769Z,38.39
2023-04-18T13:18:21.613Z,37.04
2023-04-18T13:20:49.451Z,37.68
2023-04-18T13:23:15.913Z,36.36
2023-04-18T13:25:42.373Z,37.85
2023-04-18T13:28:08.762Z,35.57
2023-04-18T13:30:35.825Z,37.84
2023-04-18T13:33:02.453Z,36.66
2023-04-18T13:35:28.984Z,37.41
2023-04-18T13:37:55.971Z,37.31
2023-04-18T13:40:22.384Z,35.06
2023-04-18T13:42:48.852Z,35.48
2023-04-18T13:45:15.538Z,36.10
2023-04-18T13:47:42.109Z,37.55
2023-04-18T13:50:09.218Z,37.85
2023-04-18T13:52:36.250Z,37.48
2023-04-18T13:55:02.702Z,37.25
2023-04-18T13:57:31.906Z,37.32
2023-04-18T13:59:58.350Z,37.39
2023-04-18T14:02:25.142Z,37.39
2023-04-18T14:04:52.362Z,38.08
2023-04-18T14:07:18.946Z,38.68
2023-04-18T14:09:46.026Z,38.49
2023-04-18T14:12:12.449Z,39.30
2023-04-18T14:14:38.933Z,40.02
2023-04-18T14:17:06.480Z,40.27
2023-04-18T14:19:33.789Z,40.17
2023-04-18T14:22:00.678Z,40.19
2023-04-18T14:24:27.142Z,42.01
2023-04-18T14:26:53.613Z,42.41
2023-04-18T14:29:20.091Z,42.10
2023-04-18T14:31:46.821Z,42.14
2023-04-18T14:34:13.592Z,43.09
2023-04-18T14:36:40.292Z,41.32
2023-04-18T14:39:06.859Z,42.42
2023-04-18T14:41:33.392Z,43.04
2023-04-18T14:43:59.962Z,41.10
2023-04-18T14:46:34.161Z,39.51
2023-04-18T14:49:00.657Z,39.51
2023-04-18T14:51:27.674Z,38.00
2023-04-18T14:53:54.419Z,37.46
2023-04-18T14:56:21.510Z,37.15
2023-04-18T14:58:48.469Z,39.24
2023-04-18T15:01:15.422Z,38.01
2023-04-18T15:03:41.959Z,38.40
2023-04-18T15:06:08.500Z,39.93
2023-04-18T15:08:35.173Z,37.20
2023-04-18T15:11:06.698Z,37.02
2023-04-18T15:13:33.523Z,37.71
2023-04-18T15:16:00.041Z,37.56
2023-04-18T15:18:26.690Z,38.42
2023-04-18T15:20:53.756Z,38.26
2023-04-18T15:23:20.470Z,37.89
2023-04-18T15:25:47.019Z,38.60
2023-04-18T15:28:13.953Z,38.83
2023-04-18T15:30:40.598Z,39.49
2023-04-18T15:33:07.476Z,40.06
2023-04-18T15:35:34.225Z,40.25
2023-04-18T15:38:00.691Z,41.10
2023-04-18T15:40:27.336Z,40.99
2023-04-18T15:42:54.508Z,41.16
2023-04-18T15:45:21.825Z,42.08
2023-04-18T15:47:48.449Z,42.05
2023-04-18T15:50:16.107Z,42.13
2023-04-18T15:52:42.948Z,42.13
2023-04-18T15:55:13.325Z,42.33
2023-04-18T15:57:41.405Z,43.23
2023-04-18T16:00:16.275Z,43.20
2023-04-18T16:02:44.732Z,43.89
2023-04-18T16:05:15.466Z,43.82
2023-04-18T16:07:43.787Z,43.82
2023-04-18T16:10:11.207Z,44.63
2023-04-18T16:12:38.974Z,44.48
2023-04-18T16:15:08.115Z,44.57
2023-04-18T16:17:36.141Z,45.70
2023-04-18T16:20:02.914Z,46.37
2023-04-18T16:22:29.462Z,46.94
2023-04-18T16:24:55.934Z,47.18
2023-04-18T16:27:22.821Z,48.14
2023-04-18T16:29:49.633Z,48.42
2023-04-18T16:32:16.437Z,48.78
2023-04-18T16:34:43.247Z,48.09
2023-04-18T16:37:09.917Z,48.57
2023-04-18T16:39:37.106Z,48.95
2023-04-18T16:42:04.955Z,49.69
2023-04-18T16:44:33.498Z,50.69
2023-04-18T16:47:06.486Z,50.92
2023-04-18T16:49:34.637Z,51.37
2023-04-18T16:52:01.797Z,50.70
2023-04-18T16:54:28.199Z,51.46
2023-04-18T16:56:56.408Z,51.49
2023-04-18T16:59:24.517Z,52.46
2023-04-18T17:01:51.242Z,52.05
2023-04-18T17:04:18.438Z,52.39
2023-04-18T17:06:45.018Z,52.79
2023-04-18T17:09:14.838Z,52.59
2023-04-18T17:11:42.309Z,52.70
2023-04-18T17:14:09.821Z,54.26
2023-04-18T17:16:41.554Z,54.91
2023-04-18T17:19:14.243Z,55.36
2023-04-18T17:21:49.173Z,55.94
2023-04-18T17:24:25.672Z,56.25
2023-04-18T17:27:02.958Z,56.95
2023-04-18T17:29:32.622Z,57.58
2023-04-18T17:32:15.925Z,58.13
2023-04-18T17:34:50.268Z,58.96
2023-04-18T17:37:17.534Z,59.85
2023-04-18T17:39:47.896Z,59.63
2023-04-18T17:42:20.601Z,60.35
2023-04-18T17:44:48.055Z,61.56
2023-04-18T17:47:16.517Z,62.74
2023-04-18T17:49:53.737Z,63.15
2023-04-18T17:52:28.438Z,63.90
2023-04-18T17:54:57.759Z,65.10
2023-04-18T17:57:34.793Z,66.08
2023-04-18T18:00:02.838Z,66.42
2023-04-18T18:02:31.574Z,66.48
2023-04-18T18:04:59.835Z,66.99
2023-04-18T18:07:38.414Z,66.73
2023-04-18T18:10:10.473Z,67.24
2023-04-18T18:12:39.614Z,68.55
2023-04-18T18:15:08.026Z,69.77
2023-04-18T18:17:34.755Z,71.33
2023-04-18T18:20:01.191Z,73.00
2023-04-18T18:22:28.307Z,73.78
2023-04-18T18:24:54.745Z,74.54
2023-04-18T18:27:21.189Z,76.61
2023-04-18T18:29:49.941Z,77.12
2023-04-18T18:32:16.601Z,77.57
2023-04-18T18:34:43.043Z,78.33
2023-04-18T18:37:09.481Z,79.21
2023-04-18T18:39:36.586Z,79.21
2023-04-18T18:42:03.095Z,80.30
2023-04-18T18:44:30.334Z,81.27
2023-04-18T18:46:57.598Z,80.70
2023-04-18T18:49:24.158Z,80.45
2023-04-18T18:51:50.555Z,79.62
2023-04-18T18:54:17.005Z,79.37
2023-04-18T18:56:44.233Z,79.65
2023-04-18T18:59:11.329Z,79.94
2023-04-18T19:01:37.811Z,79.90
2023-04-18T19:04:04.635Z,79.44
2023-04-18T19:06:31.458Z,79.77
2023-04-18T19:08:58.511Z,80.12
2023-04-18T19:11:24.952Z,80.83
2023-04-18T19:13:52.181Z,81.47
2023-04-18T19:16:18.619Z,82.14
2023-04-18T19:18:47.025Z,82.96
2023-04-18T19:21:13.810Z,83.79
2023-04-18T19:23:41.783Z,84.79
2023-04-18T19:26:09.187Z,85.79
2023-04-18T19:28:37.042Z,86.15
2023-04-18T19:31:03.602Z,86.97
2023-04-18T19:33:30.278Z,86.99
2023-04-18T19:35:56.766Z,87.96
2023-04-18T19:38:23.396Z,87.90
2023-04-18T19:40:49.797Z,87.81
2023-04-18T19:43:16.212Z,87.56
2023-04-18T19:45:42.690Z,88.52
2023-04-18T19:48:09.133Z,89.48
2023-04-18T19:50:35.546Z,89.14
2023-04-18T19:53:01.935Z,89.55
2023-04-18T19:55:28.327Z,90.54
2023-04-18T19:57:58.614Z,91.01
2023-04-18T20:00:25.254Z,90.90
2023-04-18T20:02:51.955Z,90.51
2023-04-18T20:05:18.703Z,91.85
2023-04-18T20:07:45.269Z,92.84
2023-04-18T20:10:11.930Z,93.12
2023-04-18T20:12:38.395Z,93.27
2023-04-18T20:15:05.689Z,93.11
2023-04-18T20:17:34.530Z,93.20
2023-04-18T20:20:01.438Z,92.79
2023-04-18T20:22:28.051Z,93.18
2023-04-18T20:24:57.124Z,92.86
2023-04-18T20:27:23.857Z,92.39
2023-04-18T20:29:50.450Z,92.44
2023-04-18T20:32:16.909Z,92.62
2023-04-18T20:34:43.493Z,92.23
2023-04-18T20:37:10.011Z,91.96
2023-04-18T20:39:38.062Z,92.07
2023-04-18T20:42:04.863Z,92.26
2023-04-18T20:44:34.273Z,93.69
2023-04-18T20:47:01.058Z,95.29
2023-04-18T20:49:29.469Z,97.34
2023-04-18T20:51:55.911Z,98.90
2023-04-18T20:54:22.452Z,100.00
2023-04-18T20:56:48.891Z,100.00
2023-04-18T20:59:15.409Z,100.00
2023-04-18T21:01:41.988Z,100.00
2023-04-18T21:04:08.659Z,100.00
2023-04-18T21:06:36.522Z,100.00
2023-04-18T21:09:02.973Z,100.00
2023-04-18T21:11:29.387Z,100.00
2023-04-18T21:13:55.920Z,100.00
2023-04-18T21:16:23.816Z,100.00
2023-04-18T21:18:50.336Z,100.00
2023-04-18T21:21:16.749Z,100.00
2023-04-18T21:23:44.445Z,100.00
2023-04-18T21:26:13.086Z,100.00
2023-04-18T21:28:56.629Z,100.00
2023-04-18T21:31:23.694Z,100.00
2023-04-18T21:33:57.405Z,100.00
2023-04-18T21:36:26.360Z,100.00
2023-04-18T21:38:54.342Z,100.00
2023-04-18T21:41:21.123Z,100.00
2023-04-18T21:43:47.927Z,100.00
2023-04-18T21:46:15.450Z,100.00
2023-04-18T21:48:44.280Z,100.00
2023-04-18T21:51:12.691Z,100.00
2023-04-18T21:53:40.480Z,100.00
2023-04-18T21:56:07.972Z,100.00
2023-04-18T21:58:35.009Z,100.00
2023-04-18T22:01:02.101Z,100.00
2023-04-18T22:03:29.156Z,100.00
2023-04-18T22:05:56.594Z,100.00
2023-04-18T22:08:25.862Z,100.00
2023-04-18T22:10:58.196Z,100.00
2023-04-18T22:13:30.175Z,100.00
2023-04-18T22:15:58.122Z,100.00
2023-04-18T22:18:25.259Z,100.00
2023-04-18T22:20:53.897Z,100.00
2023-04-18T22:23:20.637Z,100.00
2023-04-18T22:25:47.205Z,100.00
2023-04-18T22:28:13.618Z,100.00
2023-04-18T22:30:40.041Z,100.00
2023-04-18T22:33:06.517Z,100.00
2023-04-18T22:35:32.979Z,100.00
2023-04-18T22:37:59.382Z,100.00
2023-04-18T22:40:25.805Z,100.00
2023-04-18T22:42:52.342Z,100.00
2023-04-18T22:45:19.385Z,100.00
2023-04-18T22:47:46.727Z,100.00
2023-04-18T22:50:13.753Z,100.00
2023-04-18T22:52:40.438Z,100.00
2023-04-18T22:55:07.580Z,100.00
2023-04-18T22:57:34.003Z,100.00
2023-04-18T23:00:00.473Z,100.00
2023-04-18T23:02:26.981Z,100.00
2023-04-18T23:04:53.563Z,100.00
2023-04-18T23:07:20.233Z,100.00
2023-04-18T23:09:46.651Z,100.00
2023-04-18T23:12:13.139Z,100.00
2023-04-18T23:14:41.757Z,100.00
2023-04-18T23:17:08.258Z,100.00
2023-04-18T23:19:34.697Z,100.00
2023-04-18T23:22:01.092Z,100.00
2023-04-18T23:24:27.617Z,100.00
2023-04-18T23:26:54.021Z,100.00
2023-04-18T23:29:20.421Z,100.00
2023-04-18T23:31:46.898Z,100.00
2023-04-18T23:34:13.775Z,100.00
2023-04-18T23:36:40.543Z,100.00
2023-04-18T23:39:08.407Z,100.00
2023-04-18T23:41:34.779Z,100.00
2023-04-18T23:44:01.152Z,100.00
2023-04-18T23:46:27.617Z,100.00
2023-04-18T23:48:54.483Z,100.00
2023-04-18T23:51:20.897Z,100.00
2023-04-18T23:53:48.302Z,100.00
2023-04-18T23:56:14.721Z,100.00
2023-04-18T23:58:41.091Z,100.00
